createdAt,value
2019-03-06T00:02:27.826Z,4.60
2019-03-06T00:04:58.370Z,4.60
2019-03-06T00:07:30.034Z,4.60
2019-03-06T00:10:00.641Z,4.70
2019-03-06T00:12:31.558Z,4.60
2019-03-06T00:15:02.024Z,4.70
2019-03-06T00:17:34.121Z,4.70
2019-03-06T00:20:04.718Z,4.70
2019-03-06T00:22:35.553Z,4.70
2019-03-06T00:25:06.423Z,4.80
2019-03-06T00:27:36.927Z,4.70
2019-03-06T00:30:07.677Z,4.70
2019-03-06T00:32:38.440Z,4.70
2019-03-06T00:35:13.711Z,4.80
2019-03-06T00:37:44.237Z,4.80
2019-03-06T00:40:36.751Z,4.70
2019-03-06T00:43:08.338Z,4.80
2019-03-06T00:45:39.851Z,4.80
2019-03-06T00:48:10.458Z,4.80
2019-03-06T00:50:41.320Z,4.80
2019-03-06T00:53:11.956Z,4.80
2019-03-06T00:55:42.521Z,4.90
2019-03-06T00:58:13.047Z,4.90
2019-03-06T01:00:43.616Z,4.90
2019-03-06T01:03:14.551Z,4.80
2019-03-06T01:05:45.082Z,4.90
2019-03-06T01:08:15.798Z,4.80
2019-03-06T01:10:46.317Z,4.90
2019-03-06T01:13:16.762Z,4.90
2019-03-06T01:15:47.783Z,4.90
2019-03-06T01:18:18.249Z,4.90
2019-03-06T01:20:49.117Z,4.90
2019-03-06T01:23:19.597Z,5.00
2019-03-06T01:25:50.152Z,5.00
2019-03-06T01:28:20.594Z,4.90
2019-03-06T01:30:51.096Z,5.00
2019-03-06T01:33:43.373Z,5.00
2019-03-06T01:36:38.594Z,4.90
2019-03-06T01:39:28.126Z,5.00
2019-03-06T01:42:07.205Z,4.90
2019-03-06T01:44:44.312Z,4.90
2019-03-06T01:47:14.787Z,4.90
2019-03-06T01:49:45.344Z,4.90
2019-03-06T01:52:16.336Z,4.90
2019-03-06T01:54:47.323Z,4.90
2019-03-06T01:57:18.077Z,4.90
2019-03-06T01:59:48.740Z,4.90
2019-03-06T02:02:19.739Z,4.90
2019-03-06T02:04:50.256Z,4.90
2019-03-06T02:07:21.036Z,4.90
2019-03-06T02:09:51.628Z,4.90
2019-03-06T02:12:22.161Z,4.80
2019-03-06T02:14:52.792Z,4.90
2019-03-06T02:17:23.309Z,4.90
2019-03-06T02:19:53.996Z,4.90
2019-03-06T02:22:24.586Z,4.90
2019-03-06T02:24:55.226Z,4.90
2019-03-06T02:27:25.712Z,4.90
2019-03-06T02:29:56.230Z,4.90
2019-03-06T02:32:26.773Z,4.90
2019-03-06T02:34:57.333Z,4.80
2019-03-06T02:37:27.873Z,4.90
2019-03-06T02:39:58.657Z,4.90
2019-03-06T02:42:29.381Z,4.90
2019-03-06T02:45:00.001Z,4.90
2019-03-06T02:47:30.555Z,4.90
2019-03-06T02:50:01.232Z,4.90
2019-03-06T02:52:32.844Z,4.90
2019-03-06T02:55:03.599Z,4.90
2019-03-06T02:57:34.180Z,4.90
2019-03-06T03:00:29.225Z,4.90
2019-03-06T03:03:27.772Z,4.80
2019-03-06T03:06:03.728Z,4.80
2019-03-06T03:08:34.471Z,4.80
2019-03-06T03:11:05.354Z,4.90
2019-03-06T03:13:35.830Z,4.80
2019-03-06T03:16:06.564Z,4.80
2019-03-06T03:18:37.999Z,4.80
2019-03-06T03:21:08.723Z,4.80
2019-03-06T03:23:39.371Z,4.80
2019-03-06T03:26:09.959Z,4.80
2019-03-06T03:28:40.629Z,4.80
2019-03-06T03:31:11.579Z,4.80
2019-03-06T03:33:42.174Z,4.80
2019-03-06T03:36:12.854Z,4.80
2019-03-06T03:38:43.492Z,4.80
2019-03-06T03:41:14.111Z,4.90
2019-03-06T03:43:44.735Z,4.80
2019-03-06T03:46:15.480Z,4.80
2019-03-06T03:48:46.197Z,4.80
2019-03-06T03:51:17.365Z,4.80
2019-03-06T03:53:48.002Z,4.80
2019-03-06T03:56:19.692Z,4.80
2019-03-06T03:58:50.273Z,4.80
2019-03-06T04:01:20.804Z,4.80
2019-03-06T04:03:51.411Z,4.80
2019-03-06T04:06:22.167Z,4.80
2019-03-06T04:08:52.790Z,4.80
2019-03-06T04:11:23.303Z,4.80
2019-03-06T04:13:53.747Z,4.80
2019-03-06T04:16:24.276Z,4.80
2019-03-06T04:18:54.820Z,4.70
2019-03-06T04:21:25.358Z,4.70
2019-03-06T04:23:55.876Z,4.70
2019-03-06T04:26:26.338Z,4.60
2019-03-06T04:28:56.796Z,4.70
2019-03-06T04:31:27.310Z,4.70
2019-03-06T04:33:57.726Z,4.60
2019-03-06T04:36:28.244Z,4.60
2019-03-06T04:38:58.800Z,4.60
2019-03-06T04:41:29.464Z,4.50
2019-03-06T04:44:00.905Z,4.50
2019-03-06T04:46:31.519Z,4.40
2019-03-06T04:49:01.977Z,4.40
2019-03-06T04:51:32.496Z,4.40
2019-03-06T04:54:03.051Z,4.30
2019-03-06T04:56:33.451Z,4.30
2019-03-06T04:59:03.926Z,4.30
2019-03-06T05:01:34.402Z,4.20
2019-03-06T05:04:05.003Z,4.20
2019-03-06T05:06:35.459Z,4.20
2019-03-06T05:09:07.567Z,4.20
2019-03-06T05:11:38.232Z,4.20
2019-03-06T05:14:08.715Z,4.20
2019-03-06T05:17:01.180Z,4.10
2019-03-06T05:19:31.721Z,4.10
2019-03-06T05:22:02.569Z,4.10
2019-03-06T05:24:33.149Z,4.20
2019-03-06T05:27:03.650Z,4.20
2019-03-06T05:29:34.158Z,4.30
2019-03-06T05:32:25.231Z,4.30
2019-03-06T05:34:55.964Z,4.40
2019-03-06T05:37:58.805Z,4.40
2019-03-06T05:40:29.317Z,4.40
2019-03-06T05:42:59.847Z,4.70
2019-03-06T05:45:30.505Z,4.90
2019-03-06T05:48:00.935Z,5.20
2019-03-06T05:50:31.429Z,5.50
2019-03-06T05:53:01.866Z,5.70
2019-03-06T05:55:32.314Z,6.10
2019-03-06T05:58:02.852Z,6.10
2019-03-06T06:00:33.396Z,6.80
2019-03-06T06:03:03.942Z,6.50
2019-03-06T06:05:34.466Z,6.90
2019-03-06T06:08:04.976Z,6.90
2019-03-06T06:10:35.756Z,7.10
2019-03-06T06:13:06.284Z,7.20
2019-03-06T06:15:36.790Z,7.10
2019-03-06T06:18:07.408Z,7.20
2019-03-06T06:20:37.998Z,7.20
2019-03-06T06:23:17.158Z,7.30
2019-03-06T06:25:47.807Z,7.40
2019-03-06T06:28:18.444Z,7.60
2019-03-06T06:30:49.106Z,7.70
2019-03-06T06:33:19.733Z,7.80
2019-03-06T06:35:51.362Z,8.00
2019-03-06T06:38:21.987Z,8.20
2019-03-06T06:40:52.733Z,8.50
2019-03-06T06:43:23.521Z,8.60
2019-03-06T06:45:55.167Z,8.80
2019-03-06T06:48:26.735Z,8.80
2019-03-06T06:51:29.924Z,8.90
2019-03-06T06:54:06.233Z,9.00
2019-03-06T06:57:35.630Z,9.30
2019-03-06T07:00:58.156Z,9.30
2019-03-06T07:04:19.206Z,9.40
2019-03-06T07:07:11.829Z,9.50
2019-03-06T07:09:59.874Z,9.40
2019-03-06T07:12:41.408Z,9.50
2019-03-06T07:15:34.110Z,9.80
2019-03-06T07:18:13.905Z,10.00
2019-03-06T07:21:02.956Z,10.20
2019-03-06T07:23:58.306Z,10.40
2019-03-06T07:27:02.902Z,10.50
2019-03-06T07:29:41.144Z,10.90
2019-03-06T07:32:30.704Z,11.20
2019-03-06T07:35:53.002Z,11.30
2019-03-06T07:38:23.802Z,11.40
2019-03-06T07:41:00.639Z,11.50
2019-03-06T07:43:42.008Z,11.50
2019-03-06T07:46:24.798Z,11.40
2019-03-06T07:49:17.055Z,11.80
2019-03-06T07:52:21.448Z,12.20
2019-03-06T07:55:05.417Z,12.40
2019-03-06T07:57:56.473Z,12.40
2019-03-06T08:00:26.990Z,12.60
2019-03-06T08:03:01.185Z,12.90
2019-03-06T08:05:31.700Z,12.60
2019-03-06T08:08:02.976Z,12.80
2019-03-06T08:10:35.543Z,13.10
2019-03-06T08:13:18.683Z,13.40
2019-03-06T08:16:15.968Z,13.40
2019-03-06T08:19:04.067Z,13.70
2019-03-06T08:22:05.378Z,13.70
2019-03-06T08:25:09.856Z,13.40
2019-03-06T08:27:40.360Z,12.90
2019-03-06T08:30:12.105Z,12.30
2019-03-06T08:32:42.620Z,11.90
2019-03-06T08:35:13.198Z,11.70
2019-03-06T08:37:43.708Z,11.70
2019-03-06T08:40:14.837Z,11.70
2019-03-06T08:42:45.324Z,11.50
2019-03-06T08:45:18.132Z,11.20
2019-03-06T08:48:06.383Z,11.30
2019-03-06T08:50:45.111Z,11.10
2019-03-06T08:53:43.380Z,10.80
2019-03-06T08:56:39.886Z,10.90
2019-03-06T08:59:20.330Z,11.00
2019-03-06T09:02:15.331Z,10.70
2019-03-06T09:04:57.319Z,10.50
2019-03-06T09:07:58.670Z,10.20
2019-03-06T09:10:48.060Z,10.30
2019-03-06T09:13:45.223Z,10.30
2019-03-06T09:16:37.006Z,10.40
2019-03-06T09:19:25.349Z,10.40
2019-03-06T09:22:17.528Z,10.30
2019-03-06T09:25:15.873Z,10.40
2019-03-06T09:28:05.277Z,10.30
2019-03-06T09:31:06.705Z,10.20
2019-03-06T09:34:04.953Z,10.30
2019-03-06T09:37:00.397Z,10.60
2019-03-06T09:39:41.754Z,10.70
2019-03-06T09:42:35.634Z,10.60
2019-03-06T09:45:27.350Z,10.80
2019-03-06T09:48:16.819Z,11.30
2019-03-06T09:50:54.108Z,11.30
2019-03-06T09:53:53.410Z,11.50
2019-03-06T09:56:41.583Z,11.70
2019-03-06T09:59:37.490Z,11.50
2019-03-06T10:02:41.878Z,11.50
2019-03-06T10:05:34.241Z,11.50
2019-03-06T10:08:26.924Z,11.60
2019-03-06T10:11:20.222Z,11.60
2019-03-06T10:14:21.690Z,12.00
2019-03-06T10:16:58.244Z,12.20
2019-03-06T10:19:50.805Z,12.50
2019-03-06T10:22:21.260Z,12.70
2019-03-06T10:24:51.760Z,12.70
2019-03-06T10:27:22.264Z,12.50
2019-03-06T10:29:52.844Z,12.50
2019-03-06T10:32:23.375Z,12.60
2019-03-06T10:34:55.099Z,12.60
2019-03-06T10:37:26.792Z,12.60
2019-03-06T10:39:57.258Z,12.70
2019-03-06T10:42:27.788Z,12.60
2019-03-06T10:44:58.458Z,12.30
2019-03-06T10:47:29.013Z,12.40
2019-03-06T10:49:59.619Z,12.10
2019-03-06T10:52:30.223Z,12.00
2019-03-06T10:55:00.888Z,12.00
2019-03-06T10:57:31.569Z,12.00
2019-03-06T11:00:02.129Z,12.00
2019-03-06T11:02:33.036Z,12.10
2019-03-06T11:05:11.097Z,12.20
2019-03-06T11:07:41.649Z,12.00
2019-03-06T11:10:12.681Z,11.90
2019-03-06T11:12:43.489Z,11.80
2019-03-06T11:15:14.524Z,11.70
2019-03-06T11:17:45.312Z,11.70
2019-03-06T11:20:19.194Z,11.60
2019-03-06T11:22:50.485Z,11.50
2019-03-06T11:25:24.050Z,11.50
2019-03-06T11:27:54.914Z,11.40
2019-03-06T11:30:41.507Z,11.20
2019-03-06T11:33:12.350Z,11.30
2019-03-06T11:35:43.048Z,11.30
2019-03-06T11:38:14.179Z,11.20
2019-03-06T11:40:44.886Z,11.30
2019-03-06T11:43:15.458Z,11.30
2019-03-06T11:45:46.202Z,11.40
2019-03-06T11:48:16.720Z,11.40
2019-03-06T11:50:47.764Z,11.40
2019-03-06T11:53:18.322Z,11.30
2019-03-06T11:55:51.279Z,11.20
2019-03-06T11:58:23.062Z,11.20
2019-03-06T12:00:53.713Z,11.20
2019-03-06T12:03:24.809Z,11.20
2019-03-06T12:05:56.859Z,11.10
2019-03-06T12:08:27.456Z,11.10
2019-03-06T12:10:58.028Z,11.20
2019-03-06T12:13:28.575Z,11.20
2019-03-06T12:15:59.162Z,11.20
2019-03-06T12:18:29.795Z,11.20
2019-03-06T12:21:00.407Z,11.10
2019-03-06T12:23:31.081Z,11.20
2019-03-06T12:26:01.664Z,11.20
2019-03-06T12:28:32.231Z,11.20
2019-03-06T12:31:03.278Z,11.20
2019-03-06T12:33:33.853Z,11.20
2019-03-06T12:36:05.680Z,11.20
2019-03-06T12:38:36.535Z,11.20
2019-03-06T12:41:07.145Z,11.20
2019-03-06T12:43:38.019Z,11.20
2019-03-06T12:46:23.377Z,11.20
2019-03-06T12:49:06.051Z,11.20
2019-03-06T12:51:37.680Z,11.20
2019-03-06T12:54:09.190Z,11.20
2019-03-06T12:56:39.737Z,11.20
2019-03-06T12:59:10.458Z,11.20
2019-03-06T13:01:41.053Z,11.20
2019-03-06T13:04:11.632Z,11.20
2019-03-06T13:06:42.201Z,11.20
2019-03-06T13:09:17.331Z,11.20
2019-03-06T13:11:48.405Z,11.20
2019-03-06T13:14:19.155Z,11.20
2019-03-06T13:16:49.828Z,11.20
2019-03-06T13:19:20.723Z,11.20
2019-03-06T13:21:51.390Z,11.20
2019-03-06T13:24:22.090Z,11.20
2019-03-06T13:26:52.589Z,11.20
2019-03-06T13:29:25.793Z,11.20
2019-03-06T13:31:56.433Z,11.10
2019-03-06T13:34:50.333Z,11.10
2019-03-06T13:37:16.069Z,11.10
2019-03-06T13:39:46.609Z,11.10
2019-03-06T13:42:18.216Z,11.10
2019-03-06T13:44:48.826Z,11.10
2019-03-06T13:47:19.655Z,11.10
2019-03-06T13:49:50.312Z,11.10
2019-03-06T13:52:20.885Z,11.10
2019-03-06T13:54:52.457Z,11.10
2019-03-06T13:57:23.167Z,11.10
2019-03-06T13:59:53.837Z,11.10
2019-03-06T14:02:24.480Z,11.10
2019-03-06T14:04:55.217Z,11.10
2019-03-06T14:07:25.740Z,11.10
2019-03-06T14:09:56.503Z,11.10
2019-03-06T14:12:27.009Z,11.10
2019-03-06T14:14:57.470Z,11.20
2019-03-06T14:17:28.441Z,11.20
2019-03-06T14:19:59.202Z,11.20
2019-03-06T14:22:29.934Z,11.20
2019-03-06T14:25:00.534Z,11.20
2019-03-06T14:27:31.328Z,11.10
2019-03-06T14:30:02.013Z,11.10
2019-03-06T14:32:32.650Z,11.10
2019-03-06T14:35:03.278Z,11.10
2019-03-06T14:37:34.392Z,11.00
2019-03-06T14:40:09.969Z,11.00
2019-03-06T14:42:40.080Z,11.00
2019-03-06T14:45:13.483Z,11.00
2019-03-06T14:47:44.179Z,11.10
2019-03-06T14:50:14.600Z,11.10
2019-03-06T14:52:45.366Z,11.10
2019-03-06T14:55:16.234Z,11.10
2019-03-06T14:57:46.736Z,11.10
2019-03-06T15:00:18.091Z,11.00
2019-03-06T15:02:48.569Z,10.90
2019-03-06T15:05:19.768Z,11.00
2019-03-06T15:07:50.371Z,11.00
2019-03-06T15:10:21.021Z,11.00
2019-03-06T15:12:51.738Z,10.90
2019-03-06T15:15:22.405Z,11.00
2019-03-06T15:17:53.206Z,11.00
2019-03-06T15:20:24.301Z,11.00
2019-03-06T15:22:55.318Z,10.90
2019-03-06T15:25:25.817Z,10.90
2019-03-06T15:27:56.341Z,10.80
2019-03-06T15:30:27.030Z,10.80
2019-03-06T15:32:57.560Z,10.80
2019-03-06T15:35:28.131Z,10.80
2019-03-06T15:37:58.651Z,10.70
2019-03-06T15:40:29.155Z,10.70
2019-03-06T15:42:59.764Z,10.70
2019-03-06T15:45:32.697Z,10.70
2019-03-06T15:48:03.132Z,10.60
2019-03-06T15:50:33.760Z,10.50
2019-03-06T15:53:04.462Z,10.50
2019-03-06T15:55:35.711Z,10.40
2019-03-06T15:58:06.347Z,10.40
2019-03-06T16:00:45.949Z,10.40
2019-03-06T16:03:10.476Z,10.40
2019-03-06T16:05:41.412Z,10.30
2019-03-06T16:08:12.760Z,10.20
2019-03-06T16:10:43.376Z,10.20
2019-03-06T16:13:14.147Z,10.20
2019-03-06T16:15:46.472Z,10.10
2019-03-06T16:18:17.159Z,10.10
2019-03-06T16:20:47.687Z,10.10
2019-03-06T16:23:18.568Z,10.00
2019-03-06T16:25:49.081Z,10.00
2019-03-06T16:28:19.865Z,10.00
2019-03-06T16:30:50.549Z,10.00
2019-03-06T16:33:21.451Z,9.90
2019-03-06T16:35:52.024Z,9.80
2019-03-06T16:38:22.771Z,9.80
2019-03-06T16:40:53.454Z,9.70
2019-03-06T16:43:25.646Z,9.60
2019-03-06T16:45:56.473Z,9.60
2019-03-06T16:48:26.920Z,9.60
2019-03-06T16:50:57.489Z,9.50
2019-03-06T16:53:28.042Z,9.50
2019-03-06T16:55:58.669Z,9.50
2019-03-06T16:58:29.202Z,9.40
2019-03-06T17:00:59.828Z,9.40
2019-03-06T17:03:30.489Z,9.30
2019-03-06T17:06:01.039Z,9.20
2019-03-06T17:08:31.810Z,9.20
2019-03-06T17:11:02.392Z,9.20
2019-03-06T17:13:33.121Z,9.20
2019-03-06T17:16:04.023Z,9.20
2019-03-06T17:18:34.809Z,9.10
2019-03-06T17:21:05.611Z,9.10
2019-03-06T17:23:36.340Z,9.10
2019-03-06T17:26:07.047Z,9.10
2019-03-06T17:28:37.572Z,9.00
2019-03-06T17:31:08.109Z,9.00
2019-03-06T17:33:38.689Z,8.90
2019-03-06T17:36:09.277Z,8.90
2019-03-06T17:38:39.901Z,8.90
2019-03-06T17:41:10.655Z,8.80
2019-03-06T17:43:41.155Z,8.80
2019-03-06T17:46:11.714Z,8.70
2019-03-06T17:48:42.365Z,8.70
2019-03-06T17:51:13.062Z,8.60
2019-03-06T17:53:43.856Z,8.60
2019-03-06T17:56:14.758Z,8.60
2019-03-06T17:58:45.257Z,8.60
2019-03-06T18:01:18.635Z,8.60
2019-03-06T18:04:00.745Z,8.50
2019-03-06T18:06:31.368Z,8.50
2019-03-06T18:09:01.950Z,8.40
2019-03-06T18:11:34.167Z,8.40
2019-03-06T18:14:04.829Z,8.40
2019-03-06T18:16:37.181Z,8.50
2019-03-06T18:19:07.785Z,8.40
2019-03-06T18:21:38.599Z,8.30
2019-03-06T18:24:09.238Z,8.30
2019-03-06T18:26:39.859Z,8.30
2019-03-06T18:29:10.572Z,8.30
2019-03-06T18:31:41.484Z,8.20
2019-03-06T18:34:12.145Z,8.20
2019-03-06T18:36:42.919Z,8.20
2019-03-06T18:39:20.243Z,8.10
2019-03-06T18:41:51.210Z,8.10
2019-03-06T18:44:21.754Z,8.00
2019-03-06T18:52:36.315Z,8.00
2019-03-06T18:55:07.912Z,7.90
2019-03-06T18:57:38.678Z,8.00
2019-03-06T19:00:12.282Z,7.90
2019-03-06T19:02:43.364Z,7.80
2019-03-06T19:05:14.893Z,7.90
2019-03-06T19:07:45.537Z,7.80
2019-03-06T19:10:17.674Z,7.80
2019-03-06T19:12:48.831Z,7.80
2019-03-06T19:15:20.238Z,7.80
2019-03-06T19:17:50.848Z,7.90
2019-03-06T19:20:21.705Z,7.90
2019-03-06T19:22:52.949Z,7.80
2019-03-06T19:25:23.895Z,7.80
2019-03-06T19:27:54.625Z,7.80
2019-03-06T19:30:25.214Z,7.90
2019-03-06T19:32:56.157Z,7.90
2019-03-06T19:35:26.982Z,7.90
2019-03-06T19:37:57.677Z,8.00
2019-03-06T19:40:28.616Z,7.90
2019-03-06T19:42:59.352Z,7.90
2019-03-06T19:45:30.051Z,7.90
2019-03-06T19:48:00.698Z,7.90
2019-03-06T19:50:31.327Z,7.90
2019-03-06T19:53:02.036Z,8.00
2019-03-06T19:55:32.636Z,7.90
2019-03-06T19:58:05.149Z,7.90
2019-03-06T20:00:36.083Z,7.90
2019-03-06T20:03:10.498Z,7.90
2019-03-06T20:05:41.240Z,8.00
2019-03-06T20:08:12.939Z,8.00
2019-03-06T20:10:43.672Z,8.00
2019-03-06T20:13:14.491Z,7.90
2019-03-06T20:15:45.020Z,7.80
2019-03-06T20:18:15.648Z,7.80
2019-03-06T20:20:46.525Z,7.70
2019-03-06T20:23:17.289Z,7.60
2019-03-06T20:25:48.044Z,7.60
2019-03-06T20:28:20.167Z,7.50
2019-03-06T20:30:50.872Z,7.40
2019-03-06T20:33:22.521Z,7.30
2019-03-06T20:35:53.121Z,7.50
2019-03-06T20:38:23.786Z,7.30
2019-03-06T20:40:54.295Z,7.40
2019-03-06T20:43:25.190Z,7.40
2019-03-06T20:45:55.781Z,7.40
2019-03-06T20:48:26.450Z,7.30
2019-03-06T20:50:57.070Z,7.30
2019-03-06T20:53:28.070Z,7.30
2019-03-06T20:55:58.674Z,7.30
2019-03-06T20:58:29.311Z,7.40
2019-03-06T21:00:59.815Z,7.40
2019-03-06T21:03:30.430Z,7.40
2019-03-06T21:06:01.138Z,7.40
2019-03-06T21:08:31.614Z,7.40
2019-03-06T21:11:03.374Z,7.40
2019-03-06T21:13:34.344Z,7.30
2019-03-06T21:16:04.867Z,7.30
2019-03-06T21:18:35.500Z,7.20
2019-03-06T21:21:06.565Z,7.20
2019-03-06T21:23:37.079Z,7.10
2019-03-06T21:26:07.732Z,7.00
2019-03-06T21:28:38.328Z,7.00
2019-03-06T21:31:09.464Z,7.00
2019-03-06T21:33:40.222Z,6.90
2019-03-06T21:36:10.797Z,6.90
2019-03-06T21:38:41.334Z,6.90
2019-03-06T21:41:11.940Z,6.90
2019-03-06T21:43:42.559Z,6.90
2019-03-06T21:46:13.144Z,6.90
2019-03-06T21:48:44.703Z,6.80
2019-03-06T21:51:15.338Z,6.80
2019-03-06T21:53:45.936Z,6.80
2019-03-06T21:56:16.716Z,6.80
2019-03-06T21:58:47.360Z,6.80
2019-03-06T22:01:18.101Z,6.70
2019-03-06T22:03:48.710Z,6.70
2019-03-06T22:06:19.317Z,6.70
2019-03-06T22:08:50.807Z,6.70
2019-03-06T22:11:21.374Z,6.80
2019-03-06T22:13:52.169Z,6.80
2019-03-06T22:16:22.692Z,6.80
2019-03-06T22:18:53.293Z,6.80
2019-03-06T22:21:24.018Z,6.80
2019-03-06T22:23:54.681Z,6.80
2019-03-06T22:26:25.535Z,6.80
2019-03-06T22:28:56.295Z,6.80
2019-03-06T22:31:26.827Z,6.80
2019-03-06T22:33:57.487Z,6.90
2019-03-06T22:36:29.014Z,6.90
2019-03-06T22:38:59.451Z,6.90
2019-03-06T22:41:30.084Z,6.90
2019-03-06T22:44:00.609Z,6.80
2019-03-06T22:46:31.158Z,6.80
2019-03-06T22:49:01.688Z,6.80
2019-03-06T22:51:32.326Z,6.80
2019-03-06T22:54:03.263Z,6.80
2019-03-06T22:56:34.008Z,6.80
2019-03-06T22:59:04.602Z,6.80
2019-03-06T23:01:36.927Z,6.80
2019-03-06T23:04:07.701Z,6.80
2019-03-06T23:06:38.318Z,6.80
2019-03-06T23:09:11.322Z,6.70
2019-03-06T23:11:42.598Z,6.70
2019-03-06T23:14:13.436Z,6.70
2019-03-06T23:16:43.923Z,6.70
2019-03-06T23:19:15.292Z,6.70
2019-03-06T23:21:45.854Z,6.70
2019-03-06T23:24:17.774Z,6.70
2019-03-06T23:26:48.486Z,6.70
2019-03-06T23:29:18.977Z,6.70
2019-03-06T23:31:50.516Z,6.60
2019-03-06T23:34:21.060Z,6.70
2019-03-06T23:36:51.641Z,6.60
2019-03-06T23:39:22.204Z,6.50
2019-03-06T23:41:52.964Z,6.50
2019-03-06T23:44:23.571Z,6.50
2019-03-06T23:46:54.087Z,6.50
2019-03-06T23:49:24.652Z,6.40
2019-03-06T23:51:59.906Z,6.40
2019-03-06T23:54:30.672Z,6.40
2019-03-06T23:57:01.335Z,6.40
2019-03-06T23:59:31.804Z,6.30
